createdAt,value
2017-05-08T00:02:14.992Z,9.55
2017-05-08T00:04:43.395Z,8.97
2017-05-08T00:07:12.864Z,9.50
2017-05-08T00:09:40.506Z,9.42
2017-05-08T00:12:08.163Z,8.12
2017-05-08T00:14:36.093Z,8.23
2017-05-08T00:17:03.731Z,9.40
2017-05-08T00:19:31.365Z,7.17
2017-05-08T00:21:59.350Z,8.47
2017-05-08T00:24:27.758Z,7.25
2017-05-08T00:26:56.156Z,8.60
2017-05-08T00:29:24.945Z,8.85
2017-05-08T00:31:52.577Z,7.30
2017-05-08T00:34:20.217Z,7.70
2017-05-08T00:36:48.185Z,7.50
2017-05-08T00:39:16.596Z,7.82
2017-05-08T00:41:44.225Z,7.42
2017-05-08T00:44:12.261Z,7.12
2017-05-08T00:46:39.902Z,7.88
2017-05-08T00:49:07.557Z,8.17
2017-05-08T00:51:36.386Z,7.23
2017-05-08T00:54:04.787Z,7.67
2017-05-08T00:56:32.439Z,6.58
2017-05-08T00:59:00.369Z,7.67
2017-05-08T01:01:28.003Z,8.57
2017-05-08T01:03:55.641Z,6.57
2017-05-08T01:06:23.636Z,7.08
2017-05-08T01:08:51.266Z,7.32
2017-05-08T01:11:18.902Z,7.80
2017-05-08T01:13:46.888Z,7.87
2017-05-08T01:16:15.290Z,8.32
2017-05-08T01:18:43.689Z,8.08
2017-05-08T01:21:11.665Z,8.57
2017-05-08T01:23:39.307Z,9.03
2017-05-08T01:26:06.940Z,7.15
2017-05-08T01:28:34.912Z,7.58
2017-05-08T01:31:02.547Z,8.33
2017-05-08T01:33:30.202Z,9.03
2017-05-08T01:35:58.157Z,7.58
2017-05-08T01:38:25.797Z,7.43
2017-05-08T01:40:53.494Z,8.27
2017-05-08T01:43:21.437Z,8.32
2017-05-08T01:45:49.077Z,7.77
2017-05-08T01:48:16.717Z,7.32
2017-05-08T01:50:45.494Z,6.83
2017-05-08T01:53:13.889Z,7.35
2017-05-08T01:55:42.289Z,6.55
2017-05-08T01:58:10.258Z,7.03
2017-05-08T02:00:37.886Z,7.57
2017-05-08T02:03:05.523Z,5.72
2017-05-08T02:05:33.501Z,7.88
2017-05-08T02:08:01.905Z,6.15
2017-05-08T02:10:31.049Z,7.55
2017-05-08T02:12:59.017Z,5.80
2017-05-08T02:15:26.648Z,6.70
2017-05-08T02:17:55.073Z,5.77
2017-05-08T02:20:23.787Z,7.67
2017-05-08T02:22:51.424Z,7.98
2017-05-08T02:25:19.060Z,7.48
2017-05-08T02:27:47.051Z,6.20
2017-05-08T02:30:14.716Z,7.78
2017-05-08T02:32:42.363Z,7.00
2017-05-08T02:35:10.376Z,6.87
2017-05-08T02:37:38.025Z,7.32
2017-05-08T02:40:06.432Z,6.77
2017-05-08T02:42:34.548Z,8.13
2017-05-08T02:45:02.168Z,6.58
2017-05-08T02:47:29.840Z,8.00
2017-05-08T02:49:58.549Z,7.12
2017-05-08T02:52:26.185Z,6.67
2017-05-08T02:54:54.600Z,6.75
2017-05-08T02:57:22.592Z,8.12
2017-05-08T02:59:50.229Z,7.40
2017-05-08T03:02:18.619Z,6.95
2017-05-08T03:04:46.732Z,6.93
2017-05-08T03:07:14.430Z,6.15
2017-05-08T03:09:42.060Z,6.48
2017-05-08T03:12:10.815Z,5.70
2017-05-08T03:14:38.452Z,6.87
2017-05-08T03:17:06.085Z,6.00
2017-05-08T03:19:34.052Z,6.62
2017-05-08T03:22:01.697Z,6.97
2017-05-08T03:24:29.336Z,6.08
2017-05-08T03:26:57.306Z,6.17
2017-05-08T03:29:24.994Z,7.05
2017-05-08T03:31:53.412Z,6.78
2017-05-08T03:34:21.366Z,7.13
2017-05-08T03:36:48.996Z,6.40
2017-05-08T03:39:17.401Z,5.55
2017-05-08T03:41:45.565Z,6.23
2017-05-08T03:44:13.204Z,5.42
2017-05-08T03:46:40.841Z,5.50
2017-05-08T03:49:08.809Z,6.35
2017-05-08T03:51:36.444Z,6.02
2017-05-08T03:54:04.077Z,5.65
2017-05-08T03:56:32.853Z,7.18
2017-05-08T03:59:01.265Z,6.93
2017-05-08T04:01:29.660Z,7.32
2017-05-08T04:03:58.454Z,6.83
2017-05-08T04:06:26.853Z,8.22
2017-05-08T04:08:54.499Z,7.82
2017-05-08T04:11:22.520Z,8.52
2017-05-08T04:13:50.157Z,6.87
2017-05-08T04:16:17.797Z,7.75
2017-05-08T04:18:45.773Z,7.33
2017-05-08T04:21:14.173Z,6.63
2017-05-08T04:23:41.809Z,6.63
2017-05-08T04:26:09.932Z,9.97
2017-05-08T04:28:37.557Z,4.95
2017-05-08T04:31:05.190Z,6.92
2017-05-08T04:33:33.882Z,7.28
2017-05-08T04:36:01.586Z,8.53
2017-05-08T04:38:29.993Z,7.17
2017-05-08T04:40:57.960Z,9.33
2017-05-08T04:43:25.598Z,7.18
2017-05-08T04:45:53.240Z,7.92
2017-05-08T04:48:22.272Z,6.42
2017-05-08T04:50:49.905Z,7.38
2017-05-08T04:53:17.554Z,4.87
2017-05-08T04:55:47.012Z,6.75
2017-05-08T04:58:15.421Z,6.70
2017-05-08T05:00:43.060Z,7.05
2017-05-08T05:03:12.528Z,8.55
2017-05-08T05:05:40.160Z,7.53
2017-05-08T05:08:08.556Z,6.15
2017-05-08T05:10:36.589Z,10.62
2017-05-08T05:13:04.984Z,7.65
2017-05-08T05:15:32.621Z,5.80
2017-05-08T05:18:02.079Z,6.28
2017-05-08T05:20:29.704Z,9.08
2017-05-08T05:22:57.349Z,7.55
2017-05-08T05:25:26.062Z,7.15
2017-05-08T05:27:53.700Z,7.95
2017-05-08T05:30:21.340Z,7.33
2017-05-08T05:32:49.285Z,8.77
2017-05-08T05:35:16.920Z,10.58
2017-05-08T05:37:44.670Z,6.03
2017-05-08T05:40:13.560Z,6.57
2017-05-08T05:42:41.952Z,7.07
2017-05-08T05:45:10.352Z,5.88
2017-05-08T05:47:39.081Z,6.95
2017-05-08T05:50:06.716Z,6.17
2017-05-08T05:52:34.348Z,8.45
2017-05-08T05:55:02.269Z,8.42
2017-05-08T05:57:29.895Z,9.08
2017-05-08T05:59:57.520Z,6.95
2017-05-08T06:02:25.565Z,7.83
2017-05-08T06:04:53.201Z,8.23
2017-05-08T06:07:21.568Z,6.37
2017-05-08T06:09:49.522Z,7.57
2017-05-08T06:12:17.158Z,7.48
2017-05-08T06:14:45.564Z,6.77
2017-05-08T06:17:13.581Z,6.22
2017-05-08T06:19:41.980Z,8.48
2017-05-08T06:22:09.628Z,6.42
2017-05-08T06:24:38.361Z,5.05
2017-05-08T06:27:06.019Z,2.82
2017-05-08T06:29:33.659Z,3.48
2017-05-08T06:32:01.622Z,2.75
2017-05-08T06:34:29.284Z,2.93
2017-05-08T06:36:56.936Z,2.63
2017-05-08T06:39:24.866Z,2.87
2017-05-08T06:41:53.269Z,2.83
2017-05-08T06:44:20.916Z,3.58
2017-05-08T06:46:49.637Z,3.40
2017-05-08T06:49:17.268Z,2.80
2017-05-08T06:51:44.953Z,3.43
2017-05-08T06:54:12.897Z,3.60
2017-05-08T06:56:41.303Z,3.38
2017-05-08T06:59:09.705Z,3.25
2017-05-08T07:01:37.731Z,2.42
2017-05-08T07:04:05.386Z,3.45
2017-05-08T07:06:33.024Z,3.45
2017-05-08T07:09:01.737Z,2.80
2017-05-08T07:11:29.381Z,3.35
2017-05-08T07:13:57.015Z,3.43
2017-05-08T07:16:25.812Z,3.47
2017-05-08T07:18:53.448Z,4.03
2017-05-08T07:21:21.841Z,3.96
2017-05-08T07:23:50.585Z,4.36
2017-05-08T07:26:18.201Z,6.56
2017-05-08T07:28:46.585Z,7.84
2017-05-08T07:31:14.556Z,7.28
2017-05-08T07:33:42.172Z,7.72
2017-05-08T07:36:09.903Z,8.77
2017-05-08T07:38:38.620Z,8.17
2017-05-08T07:41:06.257Z,8.10
2017-05-08T07:43:34.664Z,9.38
2017-05-08T07:46:02.681Z,7.62
2017-05-08T07:48:30.380Z,7.20
2017-05-08T07:50:58.012Z,7.60
2017-05-08T07:53:26.024Z,7.57
2017-05-08T07:55:53.650Z,8.20
2017-05-08T07:58:21.308Z,6.15
2017-05-08T08:00:49.273Z,6.90
2017-05-08T08:03:16.912Z,5.62
2017-05-08T08:05:44.548Z,5.97
2017-05-08T08:08:12.531Z,5.98
2017-05-08T08:10:40.164Z,4.98
2017-05-08T08:13:07.792Z,7.52
2017-05-08T08:15:35.784Z,6.52
2017-05-08T08:18:03.420Z,5.90
2017-05-08T08:20:31.054Z,7.00
2017-05-08T08:22:59.122Z,7.40
2017-05-08T08:25:26.764Z,6.40
2017-05-08T08:27:54.397Z,8.28
2017-05-08T08:30:22.360Z,9.03
2017-05-08T08:32:49.988Z,8.80
2017-05-08T08:35:17.629Z,9.20
2017-05-08T08:37:45.738Z,9.02
2017-05-08T08:40:13.381Z,10.07
2017-05-08T08:42:41.829Z,9.47
2017-05-08T08:45:09.881Z,12.68
2017-05-08T08:47:37.532Z,11.75
2017-05-08T08:50:05.945Z,15.73
2017-05-08T08:52:34.769Z,15.53
2017-05-08T08:55:03.180Z,17.68
2017-05-08T08:57:30.823Z,27.25
2017-05-08T08:59:59.522Z,35.70
2017-05-08T09:02:27.166Z,34.80
2017-05-08T09:04:55.581Z,32.32
2017-05-08T09:07:23.733Z,30.13
2017-05-08T09:09:51.376Z,33.18
2017-05-08T09:12:19.027Z,34.60
2017-05-08T09:14:47.072Z,36.22
2017-05-08T09:17:14.722Z,44.48
2017-05-08T09:19:43.141Z,45.43
2017-05-08T09:22:11.949Z,45.47
2017-05-08T09:24:40.348Z,53.07
2017-05-08T09:27:08.757Z,42.97
2017-05-08T09:29:36.753Z,59.87
2017-05-08T09:32:04.388Z,54.92
2017-05-08T09:34:32.021Z,48.43
2017-05-08T09:36:59.981Z,48.98
2017-05-08T09:39:27.619Z,41.42
2017-05-08T09:41:55.261Z,43.70
2017-05-08T09:44:23.237Z,41.28
2017-05-08T09:46:50.876Z,57.00
2017-05-08T09:49:18.533Z,50.85
2017-05-08T09:51:46.470Z,62.32
2017-05-08T09:54:14.116Z,45.60
2017-05-08T09:56:42.532Z,53.17
2017-05-08T09:59:10.544Z,57.90
2017-05-08T10:01:38.184Z,52.93
2017-05-08T10:04:05.832Z,54.47
2017-05-08T10:06:33.830Z,54.38
2017-05-08T10:09:02.236Z,46.20
2017-05-08T10:11:29.873Z,48.75
2017-05-08T10:13:58.680Z,56.92
2017-05-08T10:16:26.325Z,48.62
2017-05-08T10:18:53.974Z,37.88
2017-05-08T10:21:22.673Z,41.93
2017-05-08T10:23:50.313Z,41.83
2017-05-08T10:26:17.960Z,37.97
2017-05-08T10:28:45.884Z,37.33
2017-05-08T10:31:13.521Z,43.68
2017-05-08T10:33:41.929Z,48.18
2017-05-08T10:36:09.993Z,42.62
2017-05-08T10:38:37.634Z,39.43
2017-05-08T10:41:06.105Z,42.08
2017-05-08T10:43:34.841Z,38.42
2017-05-08T10:46:02.481Z,45.73
2017-05-08T10:48:30.900Z,42.58
2017-05-08T10:50:59.725Z,40.62
2017-05-08T10:53:27.369Z,37.78
2017-05-08T10:55:55.016Z,38.07
2017-05-08T10:58:23.010Z,43.13
2017-05-08T11:00:50.734Z,41.98
2017-05-08T11:03:18.377Z,31.67
2017-05-08T11:05:46.409Z,39.28
2017-05-08T11:08:14.060Z,37.13
2017-05-08T11:10:41.704Z,33.30
2017-05-08T11:13:09.748Z,32.87
2017-05-08T11:15:37.388Z,32.78
2017-05-08T11:18:05.814Z,33.55
2017-05-08T11:20:33.780Z,32.35
2017-05-08T11:23:02.187Z,28.72
2017-05-08T11:25:30.593Z,32.03
2017-05-08T11:27:58.617Z,29.47
2017-05-08T11:30:26.251Z,28.07
2017-05-08T11:32:54.660Z,30.15
2017-05-08T11:35:22.626Z,30.65
2017-05-08T11:37:51.032Z,27.27
2017-05-08T11:40:19.440Z,30.22
2017-05-08T11:42:48.896Z,27.65
2017-05-08T11:45:17.308Z,28.72
2017-05-08T11:47:45.718Z,32.33
2017-05-08T11:50:13.661Z,28.48
2017-05-08T11:52:41.314Z,27.37
2017-05-08T11:55:08.953Z,27.42
2017-05-08T11:57:36.932Z,26.55
2017-05-08T12:00:04.581Z,29.68
2017-05-08T12:02:33.048Z,27.98
2017-05-08T12:05:01.024Z,30.88
2017-05-08T12:07:28.664Z,25.55
2017-05-08T12:09:57.077Z,31.22
2017-05-08T12:12:25.008Z,23.02
2017-05-08T12:14:53.422Z,29.82
2017-05-08T12:17:21.073Z,31.52
2017-05-08T12:19:49.796Z,27.82
2017-05-08T12:22:18.213Z,31.47
2017-05-08T12:24:45.886Z,39.38
2017-05-08T12:27:13.911Z,36.47
2017-05-08T12:29:42.328Z,33.55
2017-05-08T12:32:10.732Z,32.53
2017-05-08T12:34:38.693Z,33.15
2017-05-08T12:37:07.099Z,28.57
2017-05-08T12:39:34.771Z,29.37
2017-05-08T12:42:02.771Z,29.03
2017-05-08T12:44:30.426Z,29.43
2017-05-08T12:46:58.061Z,26.00
2017-05-08T12:49:26.785Z,27.58
2017-05-08T12:51:55.200Z,28.92
2017-05-08T12:54:22.855Z,26.75
2017-05-08T12:56:51.653Z,28.08
2017-05-08T12:59:20.070Z,24.20
2017-05-08T13:01:47.708Z,27.98
2017-05-08T13:04:15.698Z,29.37
2017-05-08T13:06:44.856Z,25.67
2017-05-08T13:09:12.498Z,25.05
2017-05-08T13:11:40.459Z,25.17
2017-05-08T13:14:08.862Z,23.38
2017-05-08T13:16:36.520Z,21.75
2017-05-08T13:19:05.398Z,23.50
2017-05-08T13:21:33.825Z,24.68
2017-05-08T13:24:01.493Z,20.67
2017-05-08T13:26:29.504Z,20.42
2017-05-08T13:28:57.176Z,21.40
2017-05-08T13:31:24.839Z,21.68
2017-05-08T13:33:52.791Z,22.10
2017-05-08T13:36:21.202Z,22.87
2017-05-08T13:38:49.622Z,20.77
2017-05-08T13:41:17.640Z,22.83
2017-05-08T13:43:46.045Z,24.03
2017-05-08T13:46:13.684Z,24.85
2017-05-08T13:48:41.659Z,22.68
2017-05-08T13:51:10.404Z,19.83
2017-05-08T13:53:39.557Z,19.50
2017-05-08T13:56:08.333Z,21.70
2017-05-08T13:58:35.976Z,20.95
2017-05-08T14:01:03.620Z,21.37
2017-05-08T14:03:31.576Z,18.98
2017-05-08T14:05:59.905Z,20.77
2017-05-08T14:08:28.320Z,21.60
2017-05-08T14:10:56.361Z,17.72
2017-05-08T14:13:24.001Z,18.02
2017-05-08T14:15:51.636Z,19.55
2017-05-08T14:18:19.597Z,17.82
2017-05-08T14:20:47.244Z,20.10
2017-05-08T14:23:14.884Z,18.73
2017-05-08T14:25:42.881Z,17.63
2017-05-08T14:28:12.036Z,16.67
2017-05-08T14:30:40.527Z,17.30
2017-05-08T14:33:08.559Z,20.02
2017-05-08T14:35:36.992Z,15.83
2017-05-08T14:38:05.426Z,20.83
2017-05-08T14:40:34.194Z,20.00
2017-05-08T14:43:01.833Z,17.05
2017-05-08T14:45:29.473Z,18.53
2017-05-08T14:47:58.936Z,16.97
2017-05-08T14:50:26.613Z,19.78
2017-05-08T14:52:54.249Z,22.62
2017-05-08T14:55:22.196Z,17.88
2017-05-08T14:57:50.601Z,17.15
2017-05-08T15:00:19.009Z,17.35
2017-05-08T15:02:46.963Z,15.20
2017-05-08T15:05:14.605Z,19.20
2017-05-08T15:07:43.013Z,16.92
2017-05-08T15:10:10.952Z,20.90
2017-05-08T15:12:38.593Z,16.45
2017-05-08T15:15:06.258Z,15.93
2017-05-08T15:17:35.819Z,20.82
2017-05-08T15:20:03.471Z,16.47
2017-05-08T15:22:31.880Z,16.12
2017-05-08T15:25:00.700Z,15.03
2017-05-08T15:27:28.363Z,15.38
2017-05-08T15:29:56.030Z,16.25
2017-05-08T15:32:24.049Z,15.30
2017-05-08T15:34:51.702Z,15.80
2017-05-08T15:37:20.312Z,16.07
2017-05-08T15:39:49.034Z,14.25
2017-05-08T15:42:17.440Z,14.02
2017-05-08T15:44:45.089Z,15.53
2017-05-08T15:47:13.212Z,15.63
2017-05-08T15:49:41.622Z,16.30
2017-05-08T15:52:10.030Z,15.37
2017-05-08T15:54:38.204Z,11.68
2017-05-08T15:57:05.847Z,16.65
2017-05-08T15:59:33.499Z,14.33
2017-05-08T16:02:01.541Z,15.37
2017-05-08T16:04:29.181Z,17.18
2017-05-08T16:06:57.593Z,15.05
2017-05-08T16:09:25.612Z,19.95
2017-05-08T16:11:53.262Z,16.23
2017-05-08T16:14:20.909Z,17.47
2017-05-08T16:16:48.962Z,18.78
2017-05-08T16:19:16.596Z,18.62
2017-05-08T16:21:44.242Z,15.92
2017-05-08T16:24:12.837Z,16.65
2017-05-08T16:26:40.452Z,17.98
2017-05-08T16:29:08.104Z,19.60
2017-05-08T16:31:36.068Z,19.00
2017-05-08T16:34:03.724Z,17.48
2017-05-08T16:36:31.369Z,16.57
2017-05-08T16:38:59.435Z,18.07
2017-05-08T16:41:28.580Z,16.60
2017-05-08T16:43:56.980Z,15.85
2017-05-08T16:46:26.451Z,15.68
2017-05-08T16:48:54.229Z,12.82
2017-05-08T16:51:22.787Z,17.22
2017-05-08T16:53:51.676Z,15.23
2017-05-08T16:56:20.084Z,15.80
2017-05-08T16:58:48.519Z,12.72
2017-05-08T17:01:17.365Z,14.13
2017-05-08T17:03:45.012Z,12.72
2017-05-08T17:06:12.672Z,14.85
2017-05-08T17:08:40.713Z,16.38
2017-05-08T17:11:08.377Z,15.67
2017-05-08T17:13:36.799Z,14.97
2017-05-08T17:16:04.769Z,14.98
2017-05-08T17:18:32.412Z,12.43
2017-05-08T17:21:00.053Z,18.92
2017-05-08T17:23:28.019Z,12.03
2017-05-08T17:25:55.856Z,14.68
2017-05-08T17:28:24.290Z,12.02
2017-05-08T17:30:52.388Z,15.75
2017-05-08T17:33:20.034Z,12.08
2017-05-08T17:35:48.444Z,14.18
2017-05-08T17:38:17.199Z,9.95
2017-05-08T17:40:44.844Z,12.63
2017-05-08T17:43:12.489Z,12.68
2017-05-08T17:45:40.532Z,13.08
2017-05-08T17:48:08.200Z,13.25
2017-05-08T17:50:36.620Z,13.62
2017-05-08T17:53:04.576Z,13.95
2017-05-08T17:55:32.989Z,10.43
2017-05-08T17:58:01.406Z,12.27
2017-05-08T18:00:29.393Z,14.05
2017-05-08T18:02:57.038Z,11.45
2017-05-08T18:05:24.681Z,9.45
2017-05-08T18:07:52.630Z,16.67
2017-05-08T18:10:20.270Z,13.10
2017-05-08T18:12:49.429Z,3.75
2017-05-08T18:15:18.352Z,3.10
2017-05-08T18:17:45.984Z,2.78
2017-05-08T18:20:13.625Z,2.30
2017-05-08T18:22:42.387Z,3.55
2017-05-08T18:25:10.020Z,3.57
2017-05-08T18:27:37.661Z,3.92
2017-05-08T18:30:06.443Z,3.83
2017-05-08T18:32:34.089Z,3.70
2017-05-08T18:35:01.724Z,3.58
2017-05-08T18:37:30.441Z,2.43
2017-05-08T18:39:58.091Z,2.97
2017-05-08T18:42:26.620Z,3.55
2017-05-08T18:44:55.117Z,4.57
2017-05-08T18:47:22.761Z,3.02
2017-05-08T18:49:53.124Z,3.85
2017-05-08T18:52:21.103Z,3.73
2017-05-08T18:54:48.749Z,3.35
2017-05-08T18:57:16.408Z,4.47
2017-05-08T18:59:44.451Z,3.73
2017-05-08T19:02:12.094Z,3.98
2017-05-08T19:04:40.517Z,3.28
2017-05-08T19:07:09.391Z,3.40
2017-05-08T19:09:37.801Z,3.75
2017-05-08T19:12:05.446Z,2.80
2017-05-08T19:14:33.473Z,3.13
2017-05-08T19:17:02.001Z,3.58
2017-05-08T19:19:30.416Z,3.75
2017-05-08T19:21:59.229Z,4.40
2017-05-08T19:24:26.856Z,4.57
2017-05-08T19:26:55.293Z,4.48
2017-05-08T19:29:23.276Z,4.20
2017-05-08T19:31:50.901Z,9.27
2017-05-08T19:34:18.542Z,7.55
2017-05-08T19:36:46.520Z,8.47
2017-05-08T19:39:14.916Z,7.13
2017-05-08T19:41:42.557Z,7.65
2017-05-08T19:44:10.588Z,5.68
2017-05-08T19:46:38.353Z,6.58
2017-05-08T19:49:05.993Z,5.12
2017-05-08T19:51:34.873Z,6.03
2017-05-08T19:54:02.642Z,6.72
2017-05-08T19:56:31.131Z,6.47
2017-05-08T19:58:59.133Z,6.22
2017-05-08T20:01:27.537Z,5.25
2017-05-08T20:03:55.222Z,5.87
2017-05-08T20:06:23.193Z,5.42
2017-05-08T20:08:50.828Z,5.77
2017-05-08T20:11:19.324Z,5.60
2017-05-08T20:13:47.359Z,4.73
2017-05-08T20:16:15.787Z,6.37
2017-05-08T20:18:44.185Z,5.65
2017-05-08T20:21:12.197Z,5.57
2017-05-08T20:23:39.838Z,8.12
2017-05-08T20:26:07.477Z,5.78
2017-05-08T20:28:35.497Z,7.93
2017-05-08T20:31:03.132Z,8.05
2017-05-08T20:33:31.528Z,9.18
2017-05-08T20:35:59.567Z,6.50
2017-05-08T20:38:27.218Z,7.65
2017-05-08T20:40:54.852Z,8.20
2017-05-08T20:43:22.809Z,8.57
2017-05-08T20:45:50.443Z,9.18
2017-05-08T20:48:18.956Z,7.53
2017-05-08T20:50:47.352Z,7.72
2017-05-08T20:53:15.756Z,8.53
2017-05-08T20:55:43.388Z,8.12
2017-05-08T20:58:12.179Z,8.57
2017-05-08T21:00:39.815Z,8.30
2017-05-08T21:03:08.254Z,8.18
2017-05-08T21:05:36.229Z,6.60
2017-05-08T21:08:03.856Z,7.32
2017-05-08T21:10:31.487Z,9.22
2017-05-08T21:13:00.198Z,7.68
2017-05-08T21:15:27.833Z,7.50
2017-05-08T21:17:55.464Z,9.37
2017-05-08T21:20:23.461Z,6.22
2017-05-08T21:22:51.861Z,8.32
2017-05-08T21:25:20.258Z,6.90
2017-05-08T21:27:48.227Z,7.48
2017-05-08T21:30:15.873Z,5.37
2017-05-08T21:32:43.524Z,5.22
2017-05-08T21:35:11.568Z,5.82
2017-05-08T21:37:39.204Z,5.68
2017-05-08T21:40:06.906Z,5.38
2017-05-08T21:42:34.927Z,8.60
2017-05-08T21:45:02.556Z,6.50
2017-05-08T21:47:30.189Z,5.90
2017-05-08T21:49:58.125Z,5.80
2017-05-08T21:52:26.517Z,5.42
2017-05-08T21:54:54.921Z,5.03
2017-05-08T21:57:24.410Z,6.13
2017-05-08T21:59:52.069Z,7.62
2017-05-08T22:02:19.709Z,6.70
2017-05-08T22:04:47.636Z,4.75
2017-05-08T22:07:15.268Z,6.03
2017-05-08T22:09:42.896Z,5.60
2017-05-08T22:12:11.595Z,6.53
2017-05-08T22:14:39.992Z,4.38
2017-05-08T22:17:07.622Z,4.88
2017-05-08T22:19:35.601Z,5.68
2017-05-08T22:22:03.236Z,5.18
2017-05-08T22:24:30.859Z,4.92
2017-05-08T22:26:58.829Z,4.80
2017-05-08T22:29:26.594Z,5.77
2017-05-08T22:31:55.034Z,5.48
2017-05-08T22:34:23.797Z,5.20
2017-05-08T22:36:52.206Z,5.20
2017-05-08T22:39:20.606Z,6.10
2017-05-08T22:41:49.396Z,6.15
2017-05-08T22:44:17.846Z,5.77
2017-05-08T22:46:45.518Z,4.27
2017-05-08T22:49:13.441Z,4.92
2017-05-08T22:51:41.072Z,5.50
2017-05-08T22:54:08.733Z,4.63
2017-05-08T22:56:36.656Z,7.27
2017-05-08T22:59:05.059Z,5.22
2017-05-08T23:01:32.689Z,4.83
2017-05-08T23:04:00.673Z,5.37
2017-05-08T23:06:28.309Z,5.92
2017-05-08T23:08:55.941Z,4.77
2017-05-08T23:11:24.831Z,5.65
2017-05-08T23:13:52.484Z,4.80
2017-05-08T23:16:20.880Z,3.58
2017-05-08T23:18:48.805Z,6.75
2017-05-08T23:21:16.455Z,5.17
2017-05-08T23:23:44.089Z,4.97
2017-05-08T23:26:12.062Z,5.00
2017-05-08T23:28:39.754Z,5.25
2017-05-08T23:31:08.149Z,5.87
2017-05-08T23:33:36.116Z,5.22
2017-05-08T23:36:03.741Z,5.68
2017-05-08T23:38:31.372Z,4.95
2017-05-08T23:41:00.068Z,7.17
2017-05-08T23:43:27.705Z,6.40
2017-05-08T23:45:55.356Z,6.85
2017-05-08T23:48:23.320Z,6.90
2017-05-08T23:50:51.713Z,6.82
2017-05-08T23:53:20.120Z,6.90
2017-05-08T23:55:48.200Z,7.22
2017-05-08T23:58:16.606Z,7.27
